createdAt,value
2023-05-03T00:01:48.693Z,3.08
2023-05-03T00:04:20.239Z,2.75
2023-05-03T00:06:47.900Z,3.00
2023-05-03T00:09:15.374Z,2.75
2023-05-03T00:11:42.779Z,2.50
2023-05-03T00:14:10.116Z,2.83
2023-05-03T00:16:37.422Z,2.72
2023-05-03T00:19:04.991Z,3.25
2023-05-03T00:21:32.466Z,3.55
2023-05-03T00:23:59.844Z,3.00
2023-05-03T00:26:27.350Z,3.90
2023-05-03T00:28:54.862Z,3.28
2023-05-03T00:31:22.208Z,2.92
2023-05-03T00:33:49.558Z,2.65
2023-05-03T00:36:16.917Z,2.85
2023-05-03T00:38:44.404Z,3.15
2023-05-03T00:41:13.195Z,3.45
2023-05-03T00:43:40.647Z,3.78
2023-05-03T00:46:16.699Z,2.88
2023-05-03T00:48:49.705Z,3.03
2023-05-03T00:51:18.193Z,4.25
2023-05-03T00:53:45.541Z,2.23
2023-05-03T00:56:16.090Z,3.20
2023-05-03T00:58:43.528Z,2.42
2023-05-03T01:01:12.034Z,3.92
2023-05-03T01:03:42.209Z,2.85
2023-05-03T01:06:27.723Z,3.13
2023-05-03T01:09:08.168Z,3.00
2023-05-03T01:11:42.784Z,3.35
2023-05-03T01:14:23.663Z,2.85
2023-05-03T01:16:54.564Z,3.70
2023-05-03T01:19:38.846Z,2.90
2023-05-03T01:22:23.088Z,2.70
2023-05-03T01:24:52.945Z,2.97
2023-05-03T01:27:20.246Z,3.17
2023-05-03T01:29:47.890Z,2.75
2023-05-03T01:32:21.426Z,2.70
2023-05-03T01:34:55.255Z,2.47
2023-05-03T01:37:22.601Z,2.97
2023-05-03T01:39:52.489Z,3.10
2023-05-03T01:42:20.938Z,3.13
2023-05-03T01:44:48.980Z,3.13
2023-05-03T01:47:16.388Z,3.20
2023-05-03T01:49:43.754Z,3.05
2023-05-03T01:52:11.099Z,3.17
2023-05-03T01:54:38.488Z,2.97
2023-05-03T01:57:06.022Z,3.58
2023-05-03T01:59:33.364Z,3.78
2023-05-03T02:02:00.856Z,3.22
2023-05-03T02:04:28.361Z,3.22
2023-05-03T02:06:55.690Z,3.55
2023-05-03T02:09:24.119Z,3.08
2023-05-03T02:11:51.415Z,3.37
2023-05-03T02:14:18.734Z,4.28
2023-05-03T02:16:47.413Z,3.03
2023-05-03T02:19:14.836Z,3.42
2023-05-03T02:21:42.398Z,3.25
2023-05-03T02:24:09.893Z,3.00
2023-05-03T02:26:37.304Z,3.38
2023-05-03T02:29:04.928Z,3.42
2023-05-03T02:31:33.940Z,2.67
2023-05-03T02:34:02.077Z,3.30
2023-05-03T02:36:29.618Z,2.80
2023-05-03T02:39:00.650Z,2.92
2023-05-03T02:41:28.693Z,2.70
2023-05-03T02:46:27.110Z,3.40
2023-05-03T02:48:54.801Z,3.72
2023-05-03T02:51:22.322Z,2.90
2023-05-03T02:53:49.715Z,4.35
2023-05-03T02:56:17.180Z,3.42
2023-05-03T02:58:45.411Z,3.22
2023-05-03T03:01:13.108Z,3.70
2023-05-03T03:03:40.816Z,3.53
2023-05-03T03:06:09.329Z,3.95
2023-05-03T03:08:40.003Z,3.67
2023-05-03T03:11:08.792Z,3.28
2023-05-03T03:13:39.637Z,4.25
2023-05-03T03:16:10.722Z,3.28
2023-05-03T03:18:38.318Z,2.90
2023-05-03T03:21:06.380Z,4.45
2023-05-03T03:23:36.236Z,3.10
2023-05-03T03:26:04.010Z,3.28
2023-05-03T03:28:31.361Z,4.38
2023-05-03T03:31:01.840Z,2.88
2023-05-03T03:33:29.261Z,2.88
2023-05-03T03:36:03.641Z,2.88
2023-05-03T03:38:36.537Z,2.83
2023-05-03T03:41:08.524Z,2.90
2023-05-03T03:43:37.109Z,2.70
2023-05-03T03:46:08.097Z,3.38
2023-05-03T03:48:35.804Z,2.90
2023-05-03T03:51:03.072Z,2.90
2023-05-03T03:53:37.671Z,2.88
2023-05-03T03:56:05.853Z,2.78
2023-05-03T03:58:33.439Z,3.13
2023-05-03T04:01:02.943Z,3.20
2023-05-03T04:03:31.375Z,3.25
2023-05-03T04:05:59.415Z,3.28
2023-05-03T04:08:28.257Z,2.72
2023-05-03T04:10:55.784Z,3.00
2023-05-03T04:13:23.247Z,3.20
2023-05-03T04:15:55.883Z,3.03
2023-05-03T04:18:23.629Z,3.97
2023-05-03T04:20:52.548Z,3.35
2023-05-03T04:23:20.934Z,2.35
2023-05-03T04:25:48.973Z,3.15
2023-05-03T04:28:19.322Z,3.08
2023-05-03T04:30:49.310Z,3.88
2023-05-03T04:33:22.091Z,3.35
2023-05-03T04:35:51.931Z,3.28
2023-05-03T04:38:20.029Z,3.25
2023-05-03T04:40:47.557Z,3.00
2023-05-03T04:43:14.837Z,3.58
2023-05-03T04:45:45.760Z,3.03
2023-05-03T04:48:20.209Z,3.60
2023-05-03T04:50:47.615Z,3.67
2023-05-03T04:53:17.878Z,3.50
2023-05-03T04:55:51.085Z,3.80
2023-05-03T04:58:18.705Z,4.28
2023-05-03T05:00:49.067Z,3.50
2023-05-03T05:03:23.406Z,4.53
2023-05-03T05:05:52.666Z,4.35
2023-05-03T05:08:21.153Z,4.10
2023-05-03T05:10:53.623Z,4.53
2023-05-03T05:13:25.881Z,4.55
2023-05-03T05:15:53.246Z,3.65
2023-05-03T05:18:20.705Z,4.43
2023-05-03T05:20:49.787Z,4.70
2023-05-03T05:23:17.254Z,4.00
2023-05-03T05:25:47.352Z,3.90
2023-05-03T05:28:15.033Z,4.70
2023-05-03T05:30:42.722Z,4.03
2023-05-03T05:33:10.119Z,3.40
2023-05-03T05:35:37.897Z,3.45
2023-05-03T05:38:05.891Z,3.78
2023-05-03T05:40:34.462Z,5.40
2023-05-03T05:43:02.319Z,4.75
2023-05-03T05:45:34.547Z,4.10
2023-05-03T05:48:04.004Z,3.15
2023-05-03T05:50:31.698Z,4.25
2023-05-03T05:53:03.473Z,3.03
2023-05-03T05:55:36.385Z,2.70
2023-05-03T05:58:03.892Z,2.60
2023-05-03T06:00:39.032Z,2.80
2023-05-03T06:03:07.042Z,2.40
2023-05-03T06:05:35.282Z,2.47
2023-05-03T06:08:02.836Z,2.78
2023-05-03T06:10:30.277Z,2.08
2023-05-03T06:12:58.304Z,2.47
2023-05-03T06:15:27.430Z,3.03
2023-05-03T06:17:54.929Z,2.40
2023-05-03T06:22:52.771Z,2.22
2023-05-03T06:25:20.089Z,2.38
2023-05-03T06:27:49.854Z,2.58
2023-05-03T06:30:19.591Z,2.35
2023-05-03T06:32:48.832Z,1.80
2023-05-03T06:35:18.416Z,2.25
2023-05-03T06:37:46.062Z,2.75
2023-05-03T06:40:13.423Z,2.47
2023-05-03T06:42:40.798Z,1.90
2023-05-03T06:45:12.203Z,2.30
2023-05-03T06:47:42.448Z,2.03
2023-05-03T06:50:10.559Z,2.25
2023-05-03T06:52:38.472Z,2.95
2023-05-03T06:55:06.134Z,3.30
2023-05-03T06:57:33.436Z,2.38
2023-05-03T07:00:01.017Z,2.22
2023-05-03T07:02:28.956Z,2.17
2023-05-03T07:04:56.560Z,1.70
2023-05-03T07:07:23.790Z,2.28
2023-05-03T07:09:51.191Z,2.38
2023-05-03T07:12:18.493Z,2.75
2023-05-03T07:14:46.098Z,2.00
2023-05-03T07:17:13.394Z,2.42
2023-05-03T07:19:40.659Z,2.63
2023-05-03T07:22:07.973Z,2.88
2023-05-03T07:24:35.229Z,2.00
2023-05-03T07:27:03.327Z,2.83
2023-05-03T07:29:30.622Z,2.05
2023-05-03T07:31:57.863Z,1.80
2023-05-03T07:34:25.316Z,2.38
2023-05-03T07:36:52.599Z,2.20
2023-05-03T07:39:20.182Z,2.00
2023-05-03T07:41:47.430Z,2.05
2023-05-03T07:44:14.672Z,1.85
2023-05-03T07:46:41.982Z,1.70
2023-05-03T07:49:09.219Z,1.48
2023-05-03T07:51:37.023Z,2.00
2023-05-03T07:54:04.318Z,1.70
2023-05-03T07:56:31.988Z,1.92
2023-05-03T07:59:08.224Z,2.15
2023-05-03T08:01:36.220Z,2.05
2023-05-03T08:04:04.552Z,2.00
2023-05-03T08:06:32.587Z,2.78
2023-05-03T08:08:59.896Z,2.22
2023-05-03T08:11:30.000Z,2.03
2023-05-03T08:13:57.470Z,2.20
2023-05-03T08:16:25.064Z,2.00
2023-05-03T08:18:52.499Z,1.90
2023-05-03T08:21:20.182Z,1.85
2023-05-03T08:23:47.513Z,1.80
2023-05-03T08:26:15.599Z,1.70
2023-05-03T08:28:44.179Z,1.80
2023-05-03T08:31:11.992Z,2.50
2023-05-03T08:33:39.299Z,2.50
2023-05-03T08:36:07.052Z,2.20
2023-05-03T08:38:36.606Z,2.03
2023-05-03T08:41:10.846Z,1.73
2023-05-03T08:43:42.196Z,2.53
2023-05-03T08:46:12.474Z,1.88
2023-05-03T08:48:39.943Z,2.10
2023-05-03T08:51:07.648Z,1.60
2023-05-03T08:53:34.922Z,1.88
2023-05-03T08:56:06.208Z,1.80
2023-05-03T08:58:35.760Z,2.30
2023-05-03T09:01:06.618Z,1.73
2023-05-03T09:03:34.690Z,2.03
2023-05-03T09:06:02.298Z,1.90
2023-05-03T09:08:30.999Z,2.42
2023-05-03T09:11:02.380Z,1.83
2023-05-03T09:13:33.712Z,1.70
2023-05-03T09:16:02.323Z,2.03
2023-05-03T09:18:30.619Z,2.40
2023-05-03T09:20:59.100Z,1.77
2023-05-03T09:23:26.511Z,2.22
2023-05-03T09:25:53.782Z,1.83
2023-05-03T09:28:21.685Z,1.55
2023-05-03T09:30:49.550Z,2.20
2023-05-03T09:33:21.360Z,2.08
2023-05-03T09:35:59.049Z,2.00
2023-05-03T09:38:27.937Z,2.47
2023-05-03T09:40:55.282Z,2.45
2023-05-03T09:43:22.567Z,2.10
2023-05-03T09:45:50.187Z,2.20
2023-05-03T09:48:18.949Z,2.00
2023-05-03T09:50:46.672Z,1.88
2023-05-03T09:53:14.588Z,1.88
2023-05-03T09:55:41.854Z,1.77
2023-05-03T09:58:09.749Z,2.17
2023-05-03T10:00:41.801Z,2.47
2023-05-03T10:03:10.425Z,1.90
2023-05-03T10:05:47.850Z,2.35
2023-05-03T10:08:21.216Z,2.55
2023-05-03T10:10:52.006Z,2.25
2023-05-03T10:13:19.313Z,2.00
2023-05-03T10:15:48.587Z,2.40
2023-05-03T10:18:16.319Z,2.33
2023-05-03T10:20:46.161Z,1.90
2023-05-03T10:23:14.232Z,2.08
2023-05-03T10:26:02.052Z,2.00
2023-05-03T10:28:29.409Z,2.13
2023-05-03T10:30:56.816Z,2.00
2023-05-03T10:33:35.285Z,2.10
2023-05-03T10:36:10.717Z,2.08
2023-05-03T10:38:38.648Z,2.92
2023-05-03T10:41:07.172Z,2.50
2023-05-03T10:43:34.483Z,2.20
2023-05-03T10:46:06.001Z,2.30
2023-05-03T10:48:35.252Z,1.88
2023-05-03T10:51:24.920Z,2.70
2023-05-03T10:53:52.156Z,2.15
2023-05-03T10:56:19.414Z,2.80
2023-05-03T10:58:47.351Z,2.47
2023-05-03T11:01:16.344Z,2.15
2023-05-03T11:06:11.012Z,2.80
2023-05-03T11:08:38.551Z,2.28
2023-05-03T11:11:09.627Z,2.10
2023-05-03T11:13:37.461Z,2.30
2023-05-03T11:16:06.039Z,3.47
2023-05-03T11:18:33.494Z,2.13
2023-05-03T11:21:00.761Z,2.90
2023-05-03T11:23:28.975Z,2.70
2023-05-03T11:25:57.831Z,2.47
2023-05-03T11:30:52.545Z,2.70
2023-05-03T11:33:19.864Z,2.38
2023-05-03T11:35:47.370Z,2.30
2023-05-03T11:38:14.749Z,3.45
2023-05-03T11:40:42.134Z,2.63
2023-05-03T11:43:09.533Z,3.10
2023-05-03T11:45:44.354Z,3.45
2023-05-03T11:48:15.172Z,3.05
2023-05-03T11:50:57.946Z,3.40
2023-05-03T11:53:26.407Z,2.75
2023-05-03T11:55:54.878Z,3.22
2023-05-03T11:58:24.806Z,3.45
2023-05-03T12:00:53.203Z,3.70
2023-05-03T12:03:21.916Z,3.10
2023-05-03T12:05:52.409Z,3.67
2023-05-03T12:08:22.162Z,3.03
2023-05-03T12:10:53.038Z,3.45
2023-05-03T12:13:32.795Z,3.40
2023-05-03T12:16:11.774Z,3.33
2023-05-03T12:18:50.568Z,2.78
2023-05-03T12:23:50.564Z,3.30
2023-05-03T12:26:20.068Z,3.38
2023-05-03T12:28:50.032Z,3.88
2023-05-03T12:31:18.514Z,3.88
2023-05-03T12:34:00.386Z,3.03
2023-05-03T12:36:37.159Z,3.63
2023-05-03T12:39:09.408Z,4.05
2023-05-03T12:44:10.609Z,2.95
2023-05-03T12:46:39.139Z,3.50
2023-05-03T12:49:08.540Z,3.58
2023-05-03T12:51:42.051Z,3.42
2023-05-03T12:54:11.694Z,3.75
2023-05-03T12:56:40.744Z,3.30
2023-05-03T13:02:38.647Z,4.25
2023-05-03T13:07:00.356Z,3.85
2023-05-03T13:09:38.709Z,3.88
2023-05-03T13:12:18.122Z,3.70
2023-05-03T13:14:45.542Z,3.88
2023-05-03T13:17:13.502Z,3.60
2023-05-03T13:19:44.946Z,3.35
2023-05-03T13:22:12.771Z,3.30
2023-05-03T13:24:41.217Z,3.70
2023-05-03T13:27:09.360Z,3.60
2023-05-03T13:29:36.757Z,3.83
2023-05-03T13:32:04.181Z,3.50
2023-05-03T13:34:31.964Z,3.42
2023-05-03T13:36:59.235Z,3.55
2023-05-03T13:39:26.574Z,3.35
2023-05-03T13:41:53.938Z,3.08
2023-05-03T13:44:25.360Z,3.80
2023-05-03T13:46:53.141Z,4.30
2023-05-03T13:49:20.740Z,3.40
2023-05-03T13:51:48.572Z,3.38
2023-05-03T13:54:16.053Z,3.47
2023-05-03T13:56:43.582Z,3.47
2023-05-03T13:59:14.510Z,3.22
2023-05-03T14:01:43.456Z,3.22
2023-05-03T14:04:11.235Z,3.25
2023-05-03T14:06:41.115Z,3.50
2023-05-03T14:09:10.536Z,3.35
2023-05-03T14:11:38.353Z,3.58
2023-05-03T14:14:06.243Z,3.70
2023-05-03T14:16:41.043Z,3.90
2023-05-03T14:19:14.115Z,4.10
2023-05-03T14:21:45.321Z,3.97
2023-05-03T14:24:12.659Z,3.50
2023-05-03T14:26:40.134Z,3.60
2023-05-03T14:29:07.389Z,3.25
2023-05-03T14:31:36.577Z,3.60
2023-05-03T14:34:04.151Z,3.88
2023-05-03T14:36:36.133Z,3.75
2023-05-03T14:39:04.428Z,3.85
2023-05-03T14:41:34.902Z,4.97
2023-05-03T14:44:02.264Z,3.45
2023-05-03T14:46:29.617Z,4.03
2023-05-03T14:48:57.251Z,4.68
2023-05-03T14:51:24.780Z,3.72
2023-05-03T14:53:52.410Z,4.00
2023-05-03T14:56:19.696Z,4.40
2023-05-03T14:58:46.993Z,3.97
2023-05-03T15:01:18.181Z,4.60
2023-05-03T15:03:45.967Z,4.40
2023-05-03T15:06:13.266Z,4.82
2023-05-03T15:08:41.329Z,4.20
2023-05-03T15:11:08.920Z,4.75
2023-05-03T15:13:36.311Z,4.57
2023-05-03T15:16:03.660Z,4.40
2023-05-03T15:18:31.316Z,4.22
2023-05-03T15:20:58.617Z,4.18
2023-05-03T15:23:25.917Z,4.13
2023-05-03T15:25:53.242Z,4.32
2023-05-03T15:28:21.181Z,4.50
2023-05-03T15:30:48.420Z,4.97
2023-05-03T15:33:15.894Z,4.82
2023-05-03T15:35:43.165Z,4.68
2023-05-03T15:38:10.484Z,4.20
2023-05-03T15:40:37.812Z,4.38
2023-05-03T15:43:05.165Z,4.65
2023-05-03T15:45:32.797Z,5.03
2023-05-03T15:48:00.331Z,5.32
2023-05-03T15:50:27.699Z,4.25
2023-05-03T15:52:56.915Z,4.35
2023-05-03T15:57:52.222Z,5.20
2023-05-03T16:00:23.133Z,4.70
2023-05-03T16:02:50.555Z,5.55
2023-05-03T16:05:18.080Z,5.28
2023-05-03T16:07:45.627Z,4.75
2023-05-03T16:10:13.293Z,4.38
2023-05-03T16:12:40.960Z,5.43
2023-05-03T16:15:10.835Z,5.50
2023-05-03T16:17:44.746Z,4.90
2023-05-03T16:20:12.692Z,4.82
2023-05-03T16:22:40.008Z,5.00
2023-05-03T16:25:07.576Z,5.47
2023-05-03T16:27:35.007Z,4.80
2023-05-03T16:30:03.104Z,6.00
2023-05-03T16:32:30.684Z,5.07
2023-05-03T16:34:58.155Z,5.30
2023-05-03T16:37:25.451Z,6.05
2023-05-03T16:39:52.885Z,5.97
2023-05-03T16:42:20.338Z,5.38
2023-05-03T16:44:47.869Z,6.43
2023-05-03T16:47:15.807Z,5.80
2023-05-03T16:49:43.465Z,5.93
2023-05-03T16:52:10.969Z,5.80
2023-05-03T16:54:38.259Z,7.63
2023-05-03T16:57:05.535Z,12.57
2023-05-03T16:59:32.976Z,19.67
2023-05-03T17:02:01.214Z,12.88
2023-05-03T17:04:29.329Z,17.53
2023-05-03T17:06:56.685Z,20.95
2023-05-03T17:09:24.020Z,22.75
2023-05-03T17:11:51.429Z,28.88
2023-05-03T17:14:18.858Z,9.75
2023-05-03T17:16:46.852Z,6.32
2023-05-03T17:19:14.147Z,6.18
2023-05-03T17:21:41.565Z,6.43
2023-05-03T17:24:08.928Z,5.53
2023-05-03T17:26:36.402Z,6.18
2023-05-03T17:29:06.495Z,5.97
2023-05-03T17:31:34.175Z,5.63
2023-05-03T17:34:01.576Z,6.47
2023-05-03T17:36:29.399Z,6.70
2023-05-03T17:38:56.917Z,5.82
2023-05-03T17:41:24.476Z,6.43
2023-05-03T17:43:52.412Z,7.13
2023-05-03T17:46:21.104Z,7.25
2023-05-03T17:48:48.679Z,5.75
2023-05-03T17:51:16.324Z,6.28
2023-05-03T17:53:43.711Z,6.43
2023-05-03T17:56:15.016Z,6.03
2023-05-03T17:58:42.375Z,6.47
2023-05-03T18:01:10.939Z,6.78
2023-05-03T18:03:38.744Z,6.30
2023-05-03T18:06:08.774Z,6.18
2023-05-03T18:08:36.161Z,6.78
2023-05-03T18:11:03.516Z,6.57
2023-05-03T18:13:34.755Z,6.82
2023-05-03T18:16:02.123Z,6.00
2023-05-03T18:18:29.556Z,6.43
2023-05-03T18:21:00.051Z,6.95
2023-05-03T18:23:27.815Z,6.68
2023-05-03T18:25:55.188Z,6.57
2023-05-03T18:28:23.831Z,6.82
2023-05-03T18:30:53.297Z,7.80
2023-05-03T18:33:20.696Z,8.85
2023-05-03T18:35:51.682Z,11.02
2023-05-03T18:38:20.496Z,7.72
2023-05-03T18:40:51.312Z,7.78
2023-05-03T18:43:18.734Z,7.38
2023-05-03T18:45:46.020Z,7.10
2023-05-03T18:48:13.343Z,7.20
2023-05-03T18:50:43.045Z,7.95
2023-05-03T18:53:10.826Z,6.35
2023-05-03T18:55:38.102Z,6.72
2023-05-03T18:58:05.796Z,8.15
2023-05-03T19:00:33.150Z,8.13
2023-05-03T19:03:01.200Z,6.63
2023-05-03T19:05:28.935Z,7.38
2023-05-03T19:07:56.231Z,6.43
2023-05-03T19:10:23.481Z,6.88
2023-05-03T19:12:53.138Z,6.50
2023-05-03T19:15:20.716Z,6.15
2023-05-03T19:17:48.068Z,7.07
2023-05-03T19:20:17.423Z,6.18
2023-05-03T19:22:44.762Z,6.55
2023-05-03T19:25:12.062Z,6.53
2023-05-03T19:27:39.352Z,6.35
2023-05-03T19:30:07.400Z,6.72
2023-05-03T19:32:39.058Z,6.70
2023-05-03T19:35:11.101Z,6.53
2023-05-03T19:37:38.740Z,5.90
2023-05-03T19:40:06.879Z,6.18
2023-05-03T19:42:34.424Z,6.97
2023-05-03T19:45:03.622Z,6.25
2023-05-03T19:47:31.653Z,6.75
2023-05-03T19:49:59.151Z,6.47
2023-05-03T19:52:26.503Z,6.72
2023-05-03T19:54:53.970Z,6.68
2023-05-03T19:57:21.196Z,6.55
2023-05-03T19:59:48.763Z,6.32
2023-05-03T20:02:16.554Z,6.93
2023-05-03T20:04:43.840Z,6.18
2023-05-03T20:07:11.327Z,7.03
2023-05-03T20:09:38.681Z,7.28
2023-05-03T20:12:06.221Z,6.05
2023-05-03T20:14:33.569Z,7.07
2023-05-03T20:17:01.455Z,7.53
2023-05-03T20:19:28.952Z,6.95
2023-05-03T20:21:56.504Z,7.53
2023-05-03T20:24:23.945Z,7.00
2023-05-03T20:26:51.533Z,7.03
2023-05-03T20:29:19.094Z,7.35
2023-05-03T20:31:48.384Z,7.28
2023-05-03T20:34:15.983Z,7.53
2023-05-03T20:36:43.350Z,7.70
2023-05-03T20:39:11.302Z,7.18
2023-05-03T20:41:39.184Z,7.80
2023-05-03T20:44:06.542Z,6.40
2023-05-03T20:46:35.133Z,6.93
2023-05-03T20:49:02.510Z,6.40
2023-05-03T20:51:29.888Z,6.90
2023-05-03T20:53:57.255Z,6.45
2023-05-03T20:56:24.526Z,6.07
2023-05-03T20:58:51.826Z,6.50
2023-05-03T21:01:19.737Z,5.85
2023-05-03T21:03:47.208Z,6.25
2023-05-03T21:06:14.835Z,6.45
2023-05-03T21:08:42.514Z,6.53
2023-05-03T21:11:09.886Z,6.38
2023-05-03T21:13:37.204Z,6.07
2023-05-03T21:16:04.848Z,6.35
2023-05-03T21:18:34.679Z,5.80
2023-05-03T21:21:02.156Z,6.05
2023-05-03T21:23:29.775Z,6.47
2023-05-03T21:25:57.221Z,6.97
2023-05-03T21:28:24.567Z,5.93
2023-05-03T21:30:51.901Z,6.53
2023-05-03T21:33:19.362Z,6.50
2023-05-03T21:35:46.707Z,6.32
2023-05-03T21:38:15.416Z,6.05
2023-05-03T21:40:43.159Z,6.30
2023-05-03T21:43:10.890Z,6.85
2023-05-03T21:45:38.216Z,6.93
2023-05-03T21:48:06.481Z,6.88
2023-05-03T21:50:33.877Z,7.20
2023-05-03T21:53:01.248Z,6.25
2023-05-03T21:55:29.694Z,7.43
2023-05-03T21:57:57.015Z,8.10
2023-05-03T22:00:25.165Z,6.72
2023-05-03T22:02:52.913Z,6.50
2023-05-03T22:05:20.352Z,7.10
2023-05-03T22:07:48.615Z,6.47
2023-05-03T22:10:16.389Z,6.68
2023-05-03T22:12:43.858Z,7.53
2023-05-03T22:15:11.954Z,6.57
2023-05-03T22:17:39.315Z,6.80
2023-05-03T22:20:07.556Z,7.22
2023-05-03T22:22:35.287Z,6.60
2023-05-03T22:25:02.966Z,7.32
2023-05-03T22:27:30.568Z,6.75
2023-05-03T22:29:57.864Z,7.15
2023-05-03T22:32:25.365Z,6.10
2023-05-03T22:34:52.777Z,6.80
2023-05-03T22:37:20.394Z,6.85
2023-05-03T22:39:47.740Z,6.05
2023-05-03T22:42:16.174Z,7.65
2023-05-03T22:44:43.642Z,6.70
2023-05-03T22:47:11.792Z,7.50
2023-05-03T22:49:39.373Z,6.43
2023-05-03T22:52:09.070Z,7.05
2023-05-03T22:54:59.325Z,7.97
2023-05-03T22:57:28.187Z,8.65
2023-05-03T22:59:56.757Z,7.05
2023-05-03T23:02:24.231Z,7.60
2023-05-03T23:04:51.852Z,7.03
2023-05-03T23:07:22.212Z,7.25
2023-05-03T23:09:49.756Z,8.48
2023-05-03T23:12:17.483Z,7.68
2023-05-03T23:14:46.128Z,7.40
2023-05-03T23:17:13.840Z,8.02
2023-05-03T23:19:41.183Z,7.20
2023-05-03T23:22:09.074Z,8.23
2023-05-03T23:24:36.798Z,7.95
2023-05-03T23:27:04.142Z,7.82
2023-05-03T23:29:32.109Z,7.32
2023-05-03T23:31:59.720Z,9.70
2023-05-03T23:34:27.686Z,7.90
2023-05-03T23:36:55.056Z,8.90
2023-05-03T23:39:22.469Z,8.43
2023-05-03T23:41:50.040Z,8.73
2023-05-03T23:44:17.490Z,10.23
2023-05-03T23:46:45.172Z,9.40
2023-05-03T23:49:15.689Z,9.60
2023-05-03T23:51:43.132Z,8.90
2023-05-03T23:54:10.705Z,8.57
2023-05-03T23:56:38.061Z,8.63
2023-05-03T23:59:14.881Z,9.10
